sensor_id;sensor_type;location;lat;lon;timestamp;temperature;humidity
21037;DHT22;10677;50.942;4.028;2023-08-07T00:00:30;13.80;99.90
21037;DHT22;10677;50.942;4.028;2023-08-07T00:02:55;13.80;99.90
21037;DHT22;10677;50.942;4.028;2023-08-07T00:05:21;13.80;99.90
21037;DHT22;10677;50.942;4.028;2023-08-07T00:07:47;13.80;99.90
21037;DHT22;10677;50.942;4.028;2023-08-07T00:10:12;13.80;99.90
21037;DHT22;10677;50.942;4.028;2023-08-07T00:12:38;13.80;99.90
21037;DHT22;10677;50.942;4.028;2023-08-07T00:15:05;13.80;99.90
21037;DHT22;10677;50.942;4.028;2023-08-07T00:17:31;13.80;99.90
21037;DHT22;10677;50.942;4.028;2023-08-07T00:19:57;13.70;99.90
21037;DHT22;10677;50.942;4.028;2023-08-07T00:22:22;13.80;99.90
21037;DHT22;10677;50.942;4.028;2023-08-07T00:24:48;13.70;99.90
21037;DHT22;10677;50.942;4.028;2023-08-07T00:27:14;13.60;99.90
21037;DHT22;10677;50.942;4.028;2023-08-07T00:29:40;13.50;99.90
21037;DHT22;10677;50.942;4.028;2023-08-07T00:32:06;13.50;99.90
21037;DHT22;10677;50.942;4.028;2023-08-07T00:34:32;13.50;99.90
21037;DHT22;10677;50.942;4.028;2023-08-07T00:36:57;13.50;99.90
21037;DHT22;10677;50.942;4.028;2023-08-07T00:39:24;13.50;99.90
21037;DHT22;10677;50.942;4.028;2023-08-07T00:41:49;13.60;99.90
21037;DHT22;10677;50.942;4.028;2023-08-07T00:44:15;13.50;99.90
21037;DHT22;10677;50.942;4.028;2023-08-07T00:46:42;13.60;99.90
21037;DHT22;10677;50.942;4.028;2023-08-07T00:49:09;13.70;99.90
21037;DHT22;10677;50.942;4.028;2023-08-07T00:51:36;13.60;99.90
21037;DHT22;10677;50.942;4.028;2023-08-07T00:54:04;13.70;99.90
21037;DHT22;10677;50.942;4.028;2023-08-07T00:56:33;13.60;99.90
21037;DHT22;10677;50.942;4.028;2023-08-07T00:58:59;13.40;99.90
21037;DHT22;10677;50.942;4.028;2023-08-07T01:01:26;13.40;99.90
21037;DHT22;10677;50.942;4.028;2023-08-07T01:03:52;13.30;99.90
21037;DHT22;10677;50.942;4.028;2023-08-07T01:06:18;13.30;99.90
21037;DHT22;10677;50.942;4.028;2023-08-07T01:08:44;13.40;99.90
21037;DHT22;10677;50.942;4.028;2023-08-07T01:14:40;13.50;99.90
21037;DHT22;10677;50.942;4.028;2023-08-07T01:17:15;13.40;99.90
21037;DHT22;10677;50.942;4.028;2023-08-07T01:19:42;13.20;99.90
21037;DHT22;10677;50.942;4.028;2023-08-07T01:22:11;13.30;99.90
21037;DHT22;10677;50.942;4.028;2023-08-07T01:24:40;13.40;99.90
21037;DHT22;10677;50.942;4.028;2023-08-07T01:32:34;13.20;99.90
21037;DHT22;10677;50.942;4.028;2023-08-07T01:35:05;13.10;99.90
21037;DHT22;10677;50.942;4.028;2023-08-07T01:37:35;13.20;99.90
21037;DHT22;10677;50.942;4.028;2023-08-07T01:40:02;13.10;99.90
21037;DHT22;10677;50.942;4.028;2023-08-07T01:42:31;13.20;99.90
21037;DHT22;10677;50.942;4.028;2023-08-07T01:44:58;13.20;99.90
21037;DHT22;10677;50.942;4.028;2023-08-07T01:47:23;13.10;99.90
21037;DHT22;10677;50.942;4.028;2023-08-07T01:49:49;13.20;99.90
21037;DHT22;10677;50.942;4.028;2023-08-07T01:52:15;13.20;99.90
21037;DHT22;10677;50.942;4.028;2023-08-07T01:54:40;13.20;99.90
21037;DHT22;10677;50.942;4.028;2023-08-07T01:57:06;13.30;99.90
21037;DHT22;10677;50.942;4.028;2023-08-07T01:59:32;13.40;99.90
21037;DHT22;10677;50.942;4.028;2023-08-07T02:01:57;13.30;99.90
21037;DHT22;10677;50.942;4.028;2023-08-07T02:04:23;13.20;99.90
21037;DHT22;10677;50.942;4.028;2023-08-07T02:06:48;13.30;99.90
21037;DHT22;10677;50.942;4.028;2023-08-07T02:09:14;13.50;99.90
21037;DHT22;10677;50.942;4.028;2023-08-07T02:11:40;13.50;99.90
21037;DHT22;10677;50.942;4.028;2023-08-07T02:14:05;13.60;99.90
21037;DHT22;10677;50.942;4.028;2023-08-07T02:16:31;13.60;99.90
21037;DHT22;10677;50.942;4.028;2023-08-07T02:18:57;13.60;99.90
21037;DHT22;10677;50.942;4.028;2023-08-07T02:21:22;13.50;99.90
21037;DHT22;10677;50.942;4.028;2023-08-07T02:23:48;13.50;99.90
21037;DHT22;10677;50.942;4.028;2023-08-07T02:26:13;13.30;99.90
21037;DHT22;10677;50.942;4.028;2023-08-07T02:28:39;13.30;99.90
21037;DHT22;10677;50.942;4.028;2023-08-07T02:31:05;13.30;99.90
21037;DHT22;10677;50.942;4.028;2023-08-07T02:33:30;13.40;99.90
21037;DHT22;10677;50.942;4.028;2023-08-07T02:35:57;13.40;99.90
21037;DHT22;10677;50.942;4.028;2023-08-07T02:38:22;13.30;99.90
21037;DHT22;10677;50.942;4.028;2023-08-07T02:40:48;13.40;99.90
21037;DHT22;10677;50.942;4.028;2023-08-07T02:43:14;13.40;99.90
21037;DHT22;10677;50.942;4.028;2023-08-07T02:45:39;13.50;99.90
21037;DHT22;10677;50.942;4.028;2023-08-07T02:48:05;13.50;99.90
21037;DHT22;10677;50.942;4.028;2023-08-07T02:50:31;13.60;99.90
21037;DHT22;10677;50.942;4.028;2023-08-07T02:52:59;13.60;99.90
21037;DHT22;10677;50.942;4.028;2023-08-07T02:55:24;13.70;99.90
21037;DHT22;10677;50.942;4.028;2023-08-07T02:57:50;13.70;99.90
21037;DHT22;10677;50.942;4.028;2023-08-07T03:00:16;13.70;99.90
21037;DHT22;10677;50.942;4.028;2023-08-07T03:02:41;13.70;99.90
21037;DHT22;10677;50.942;4.028;2023-08-07T03:05:07;13.60;99.90
21037;DHT22;10677;50.942;4.028;2023-08-07T03:07:33;13.60;99.90
21037;DHT22;10677;50.942;4.028;2023-08-07T03:09:59;13.70;99.90
21037;DHT22;10677;50.942;4.028;2023-08-07T03:12:24;13.60;99.90
21037;DHT22;10677;50.942;4.028;2023-08-07T03:14:50;13.60;99.90
21037;DHT22;10677;50.942;4.028;2023-08-07T03:17:16;13.60;99.90
21037;DHT22;10677;50.942;4.028;2023-08-07T03:19:43;13.50;99.90
21037;DHT22;10677;50.942;4.028;2023-08-07T03:22:09;13.50;99.90
21037;DHT22;10677;50.942;4.028;2023-08-07T03:24:34;13.40;99.90
21037;DHT22;10677;50.942;4.028;2023-08-07T03:27:00;13.40;99.90
21037;DHT22;10677;50.942;4.028;2023-08-07T03:29:27;13.30;99.90
21037;DHT22;10677;50.942;4.028;2023-08-07T03:31:53;13.30;99.90
21037;DHT22;10677;50.942;4.028;2023-08-07T03:34:18;13.40;99.90
21037;DHT22;10677;50.942;4.028;2023-08-07T03:36:45;13.30;99.90
21037;DHT22;10677;50.942;4.028;2023-08-07T03:39:10;13.30;99.90
21037;DHT22;10677;50.942;4.028;2023-08-07T03:41:37;13.30;99.90
21037;DHT22;10677;50.942;4.028;2023-08-07T03:44:03;13.30;99.90
21037;DHT22;10677;50.942;4.028;2023-08-07T03:46:29;13.30;99.90
21037;DHT22;10677;50.942;4.028;2023-08-07T03:48:55;13.20;99.90
21037;DHT22;10677;50.942;4.028;2023-08-07T03:51:20;13.20;99.90
21037;DHT22;10677;50.942;4.028;2023-08-07T03:53:46;13.20;99.90
21037;DHT22;10677;50.942;4.028;2023-08-07T03:56:11;13.10;99.90
21037;DHT22;10677;50.942;4.028;2023-08-07T03:58:37;13.00;99.90
21037;DHT22;10677;50.942;4.028;2023-08-07T04:01:03;13.00;99.90
21037;DHT22;10677;50.942;4.028;2023-08-07T04:03:28;13.00;99.90
21037;DHT22;10677;50.942;4.028;2023-08-07T04:05:54;13.00;99.90
21037;DHT22;10677;50.942;4.028;2023-08-07T04:08:21;13.00;99.90
21037;DHT22;10677;50.942;4.028;2023-08-07T04:11:04;13.00;99.90
21037;DHT22;10677;50.942;4.028;2023-08-07T04:13:30;12.90;99.90
21037;DHT22;10677;50.942;4.028;2023-08-07T04:15:57;12.90;99.90
21037;DHT22;10677;50.942;4.028;2023-08-07T04:18:23;13.00;99.90
21037;DHT22;10677;50.942;4.028;2023-08-07T04:20:53;12.90;99.90
21037;DHT22;10677;50.942;4.028;2023-08-07T04:23:19;12.90;99.90
21037;DHT22;10677;50.942;4.028;2023-08-07T04:25:46;12.90;99.90
21037;DHT22;10677;50.942;4.028;2023-08-07T04:28:12;12.90;99.90
21037;DHT22;10677;50.942;4.028;2023-08-07T04:30:38;12.90;99.90
21037;DHT22;10677;50.942;4.028;2023-08-07T04:33:04;13.00;99.90
21037;DHT22;10677;50.942;4.028;2023-08-07T04:35:30;12.90;99.90
21037;DHT22;10677;50.942;4.028;2023-08-07T04:37:56;12.90;99.90
21037;DHT22;10677;50.942;4.028;2023-08-07T04:40:22;12.90;99.90
21037;DHT22;10677;50.942;4.028;2023-08-07T04:42:49;13.00;99.90
21037;DHT22;10677;50.942;4.028;2023-08-07T04:45:15;13.00;99.90
21037;DHT22;10677;50.942;4.028;2023-08-07T04:47:40;13.00;99.90
21037;DHT22;10677;50.942;4.028;2023-08-07T04:50:08;13.00;99.90
21037;DHT22;10677;50.942;4.028;2023-08-07T04:52:34;13.10;99.90
21037;DHT22;10677;50.942;4.028;2023-08-07T04:55:00;13.20;99.90
21037;DHT22;10677;50.942;4.028;2023-08-07T04:57:26;13.20;99.90
21037;DHT22;10677;50.942;4.028;2023-08-07T04:59:52;13.20;99.90
21037;DHT22;10677;50.942;4.028;2023-08-07T05:02:18;13.30;99.90
21037;DHT22;10677;50.942;4.028;2023-08-07T05:04:44;13.20;99.90
21037;DHT22;10677;50.942;4.028;2023-08-07T05:07:11;13.30;99.90
21037;DHT22;10677;50.942;4.028;2023-08-07T05:09:37;13.20;99.90
21037;DHT22;10677;50.942;4.028;2023-08-07T05:12:04;13.30;99.90
21037;DHT22;10677;50.942;4.028;2023-08-07T05:14:30;13.30;99.90
21037;DHT22;10677;50.942;4.028;2023-08-07T05:16:55;13.40;99.90
21037;DHT22;10677;50.942;4.028;2023-08-07T05:19:21;13.40;99.90
21037;DHT22;10677;50.942;4.028;2023-08-07T05:21:48;13.40;99.90
21037;DHT22;10677;50.942;4.028;2023-08-07T05:24:17;13.40;99.90
21037;DHT22;10677;50.942;4.028;2023-08-07T05:26:43;13.50;99.90
21037;DHT22;10677;50.942;4.028;2023-08-07T05:29:08;13.50;99.90
21037;DHT22;10677;50.942;4.028;2023-08-07T05:31:34;13.60;99.90
21037;DHT22;10677;50.942;4.028;2023-08-07T05:34:00;13.70;99.90
21037;DHT22;10677;50.942;4.028;2023-08-07T05:36:26;13.80;99.90
21037;DHT22;10677;50.942;4.028;2023-08-07T05:38:51;13.70;99.90
21037;DHT22;10677;50.942;4.028;2023-08-07T05:41:17;13.60;99.90
21037;DHT22;10677;50.942;4.028;2023-08-07T05:43:43;13.70;99.90
21037;DHT22;10677;50.942;4.028;2023-08-07T05:46:09;13.70;99.90
21037;DHT22;10677;50.942;4.028;2023-08-07T05:48:34;13.80;99.90
21037;DHT22;10677;50.942;4.028;2023-08-07T05:51:00;14.00;99.90
21037;DHT22;10677;50.942;4.028;2023-08-07T05:53:26;14.00;99.90
21037;DHT22;10677;50.942;4.028;2023-08-07T05:55:52;14.20;99.90
21037;DHT22;10677;50.942;4.028;2023-08-07T05:58:17;14.10;99.90
21037;DHT22;10677;50.942;4.028;2023-08-07T06:00:44;14.10;99.90
21037;DHT22;10677;50.942;4.028;2023-08-07T06:03:10;14.20;99.90
21037;DHT22;10677;50.942;4.028;2023-08-07T06:05:35;14.10;99.90
21037;DHT22;10677;50.942;4.028;2023-08-07T06:08:01;14.20;99.90
21037;DHT22;10677;50.942;4.028;2023-08-07T06:10:27;14.40;99.90
21037;DHT22;10677;50.942;4.028;2023-08-07T06:12:55;14.50;99.90
21037;DHT22;10677;50.942;4.028;2023-08-07T06:15:21;14.50;99.90
21037;DHT22;10677;50.942;4.028;2023-08-07T06:17:47;14.40;99.90
21037;DHT22;10677;50.942;4.028;2023-08-07T06:20:13;14.50;99.90
21037;DHT22;10677;50.942;4.028;2023-08-07T06:22:40;14.40;99.90
21037;DHT22;10677;50.942;4.028;2023-08-07T06:25:06;14.40;99.90
21037;DHT22;10677;50.942;4.028;2023-08-07T06:27:34;14.60;99.90
21037;DHT22;10677;50.942;4.028;2023-08-07T06:30:00;14.50;99.90
21037;DHT22;10677;50.942;4.028;2023-08-07T06:32:26;14.60;99.90
21037;DHT22;10677;50.942;4.028;2023-08-07T06:34:52;14.70;99.90
21037;DHT22;10677;50.942;4.028;2023-08-07T06:37:18;14.80;99.90
21037;DHT22;10677;50.942;4.028;2023-08-07T06:39:43;14.90;99.90
21037;DHT22;10677;50.942;4.028;2023-08-07T06:42:09;14.90;99.90
21037;DHT22;10677;50.942;4.028;2023-08-07T06:44:36;14.90;99.90
21037;DHT22;10677;50.942;4.028;2023-08-07T06:47:01;15.00;99.90
21037;DHT22;10677;50.942;4.028;2023-08-07T06:49:27;15.10;99.90
21037;DHT22;10677;50.942;4.028;2023-08-07T06:51:53;15.10;99.90
21037;DHT22;10677;50.942;4.028;2023-08-07T06:54:18;15.20;99.90
21037;DHT22;10677;50.942;4.028;2023-08-07T06:56:44;15.20;99.90
21037;DHT22;10677;50.942;4.028;2023-08-07T06:59:10;15.20;99.90
21037;DHT22;10677;50.942;4.028;2023-08-07T07:01:36;15.20;99.90
21037;DHT22;10677;50.942;4.028;2023-08-07T07:04:01;15.30;99.90
21037;DHT22;10677;50.942;4.028;2023-08-07T07:06:27;15.30;99.90
21037;DHT22;10677;50.942;4.028;2023-08-07T07:08:53;15.40;99.90
21037;DHT22;10677;50.942;4.028;2023-08-07T07:11:24;15.60;99.90
21037;DHT22;10677;50.942;4.028;2023-08-07T07:13:50;15.60;99.90
21037;DHT22;10677;50.942;4.028;2023-08-07T07:16:20;15.60;99.90
21037;DHT22;10677;50.942;4.028;2023-08-07T07:18:52;15.50;99.90
21037;DHT22;10677;50.942;4.028;2023-08-07T07:21:18;15.60;99.90
21037;DHT22;10677;50.942;4.028;2023-08-07T07:23:44;15.70;99.90
21037;DHT22;10677;50.942;4.028;2023-08-07T07:26:10;15.80;99.90
21037;DHT22;10677;50.942;4.028;2023-08-07T07:28:35;15.80;99.90
21037;DHT22;10677;50.942;4.028;2023-08-07T07:31:01;15.90;99.90
21037;DHT22;10677;50.942;4.028;2023-08-07T07:33:29;15.90;99.90
21037;DHT22;10677;50.942;4.028;2023-08-07T07:35:55;16.00;99.90
21037;DHT22;10677;50.942;4.028;2023-08-07T07:38:20;16.10;99.90
21037;DHT22;10677;50.942;4.028;2023-08-07T07:40:47;16.20;99.90
21037;DHT22;10677;50.942;4.028;2023-08-07T07:43:13;16.30;99.90
21037;DHT22;10677;50.942;4.028;2023-08-07T07:45:38;16.20;99.90
21037;DHT22;10677;50.942;4.028;2023-08-07T07:48:04;16.20;99.90
21037;DHT22;10677;50.942;4.028;2023-08-07T07:50:31;16.20;99.90
21037;DHT22;10677;50.942;4.028;2023-08-07T07:52:57;16.10;99.90
21037;DHT22;10677;50.942;4.028;2023-08-07T07:55:24;16.20;99.90
21037;DHT22;10677;50.942;4.028;2023-08-07T07:57:49;16.20;99.90
21037;DHT22;10677;50.942;4.028;2023-08-07T08:00:16;16.30;99.90
21037;DHT22;10677;50.942;4.028;2023-08-07T08:02:41;16.30;99.90
21037;DHT22;10677;50.942;4.028;2023-08-07T08:05:08;16.40;99.90
21037;DHT22;10677;50.942;4.028;2023-08-07T08:07:37;16.40;99.90
21037;DHT22;10677;50.942;4.028;2023-08-07T08:10:02;16.60;99.90
21037;DHT22;10677;50.942;4.028;2023-08-07T08:12:30;16.70;99.90
21037;DHT22;10677;50.942;4.028;2023-08-07T08:14:56;16.90;99.90
21037;DHT22;10677;50.942;4.028;2023-08-07T08:17:23;16.80;99.90
21037;DHT22;10677;50.942;4.028;2023-08-07T08:19:48;16.80;99.90
21037;DHT22;10677;50.942;4.028;2023-08-07T08:22:14;16.80;99.90
21037;DHT22;10677;50.942;4.028;2023-08-07T08:24:39;16.70;99.90
21037;DHT22;10677;50.942;4.028;2023-08-07T08:27:07;16.80;99.90
21037;DHT22;10677;50.942;4.028;2023-08-07T08:29:32;16.90;99.90
21037;DHT22;10677;50.942;4.028;2023-08-07T08:31:58;17.00;99.90
21037;DHT22;10677;50.942;4.028;2023-08-07T08:34:26;17.20;99.90
21037;DHT22;10677;50.942;4.028;2023-08-07T08:36:52;17.30;99.90
21037;DHT22;10677;50.942;4.028;2023-08-07T08:39:18;17.20;99.90
21037;DHT22;10677;50.942;4.028;2023-08-07T08:41:46;17.00;99.90
21037;DHT22;10677;50.942;4.028;2023-08-07T08:44:14;17.10;99.90
21037;DHT22;10677;50.942;4.028;2023-08-07T08:46:42;17.20;99.90
21037;DHT22;10677;50.942;4.028;2023-08-07T08:49:10;17.30;99.90
21037;DHT22;10677;50.942;4.028;2023-08-07T08:51:37;17.30;99.90
21037;DHT22;10677;50.942;4.028;2023-08-07T08:54:03;17.30;99.90
21037;DHT22;10677;50.942;4.028;2023-08-07T08:56:31;17.30;99.90
21037;DHT22;10677;50.942;4.028;2023-08-07T08:58:57;17.40;99.90
21037;DHT22;10677;50.942;4.028;2023-08-07T09:01:23;17.40;99.90
21037;DHT22;10677;50.942;4.028;2023-08-07T09:03:49;17.60;99.90
21037;DHT22;10677;50.942;4.028;2023-08-07T09:06:18;17.70;99.90
21037;DHT22;10677;50.942;4.028;2023-08-07T09:08:44;17.90;99.90
21037;DHT22;10677;50.942;4.028;2023-08-07T09:11:12;17.80;99.90
21037;DHT22;10677;50.942;4.028;2023-08-07T09:13:40;17.80;99.90
21037;DHT22;10677;50.942;4.028;2023-08-07T09:16:09;17.60;99.90
21037;DHT22;10677;50.942;4.028;2023-08-07T09:18:35;17.90;99.90
21037;DHT22;10677;50.942;4.028;2023-08-07T09:21:02;17.80;99.90
21037;DHT22;10677;50.942;4.028;2023-08-07T09:23:28;17.90;99.90
21037;DHT22;10677;50.942;4.028;2023-08-07T09:26:04;18.00;99.90
21037;DHT22;10677;50.942;4.028;2023-08-07T09:28:32;18.10;99.90
21037;DHT22;10677;50.942;4.028;2023-08-07T09:30:59;18.00;99.90
21037;DHT22;10677;50.942;4.028;2023-08-07T09:33:26;17.70;99.90
21037;DHT22;10677;50.942;4.028;2023-08-07T09:35:52;17.80;99.90
21037;DHT22;10677;50.942;4.028;2023-08-07T09:38:18;18.00;99.90
21037;DHT22;10677;50.942;4.028;2023-08-07T09:40:48;18.30;99.90
21037;DHT22;10677;50.942;4.028;2023-08-07T09:43:22;18.50;99.90
21037;DHT22;10677;50.942;4.028;2023-08-07T09:45:48;18.40;99.90
21037;DHT22;10677;50.942;4.028;2023-08-07T09:48:24;18.40;99.90
21037;DHT22;10677;50.942;4.028;2023-08-07T09:50:54;18.40;99.90
21037;DHT22;10677;50.942;4.028;2023-08-07T09:53:27;18.30;99.90
21037;DHT22;10677;50.942;4.028;2023-08-07T09:55:54;18.20;99.90
21037;DHT22;10677;50.942;4.028;2023-08-07T09:58:20;18.30;99.90
21037;DHT22;10677;50.942;4.028;2023-08-07T10:00:47;18.40;99.90
21037;DHT22;10677;50.942;4.028;2023-08-07T10:03:15;18.40;99.90
21037;DHT22;10677;50.942;4.028;2023-08-07T10:05:42;18.50;99.90
21037;DHT22;10677;50.942;4.028;2023-08-07T10:08:10;18.60;99.90
21037;DHT22;10677;50.942;4.028;2023-08-07T10:10:37;18.70;99.90
21037;DHT22;10677;50.942;4.028;2023-08-07T10:13:03;19.10;99.90
21037;DHT22;10677;50.942;4.028;2023-08-07T10:15:31;19.30;99.90
21037;DHT22;10677;50.942;4.028;2023-08-07T10:17:57;19.40;99.90
21037;DHT22;10677;50.942;4.028;2023-08-07T10:20:26;19.20;99.90
21037;DHT22;10677;50.942;4.028;2023-08-07T10:22:52;19.20;99.90
21037;DHT22;10677;50.942;4.028;2023-08-07T10:25:22;19.10;99.90
21037;DHT22;10677;50.942;4.028;2023-08-07T10:27:50;19.20;99.90
21037;DHT22;10677;50.942;4.028;2023-08-07T10:30:19;18.80;99.90
21037;DHT22;10677;50.942;4.028;2023-08-07T10:32:46;18.90;99.90
21037;DHT22;10677;50.942;4.028;2023-08-07T10:35:31;18.80;99.90
21037;DHT22;10677;50.942;4.028;2023-08-07T10:38:08;19.20;99.90
21037;DHT22;10677;50.942;4.028;2023-08-07T10:40:58;19.20;99.90
21037;DHT22;10677;50.942;4.028;2023-08-07T10:43:24;19.30;99.90
21037;DHT22;10677;50.942;4.028;2023-08-07T10:45:51;19.50;99.90
21037;DHT22;10677;50.942;4.028;2023-08-07T10:48:21;19.60;99.90
21037;DHT22;10677;50.942;4.028;2023-08-07T10:53:19;19.20;99.90
21037;DHT22;10677;50.942;4.028;2023-08-07T10:55:47;19.10;99.90
21037;DHT22;10677;50.942;4.028;2023-08-07T10:58:33;19.40;99.90
21037;DHT22;10677;50.942;4.028;2023-08-07T11:01:21;19.40;99.90
21037;DHT22;10677;50.942;4.028;2023-08-07T11:03:53;19.40;99.90
21037;DHT22;10677;50.942;4.028;2023-08-07T11:06:23;19.50;99.90
21037;DHT22;10677;50.942;4.028;2023-08-07T11:08:50;19.70;99.90
21037;DHT22;10677;50.942;4.028;2023-08-07T11:11:16;19.70;99.90
21037;DHT22;10677;50.942;4.028;2023-08-07T11:13:41;19.70;99.90
21037;DHT22;10677;50.942;4.028;2023-08-07T11:16:07;19.60;99.90
21037;DHT22;10677;50.942;4.028;2023-08-07T11:18:33;19.70;99.90
21037;DHT22;10677;50.942;4.028;2023-08-07T11:21:01;19.90;99.90
21037;DHT22;10677;50.942;4.028;2023-08-07T11:23:28;20.10;99.90
21037;DHT22;10677;50.942;4.028;2023-08-07T11:25:54;20.10;99.90
21037;DHT22;10677;50.942;4.028;2023-08-07T11:28:21;20.30;99.90
21037;DHT22;10677;50.942;4.028;2023-08-07T11:30:50;20.00;99.90
21037;DHT22;10677;50.942;4.028;2023-08-07T11:33:18;20.00;99.90
21037;DHT22;10677;50.942;4.028;2023-08-07T11:35:45;19.90;99.90
21037;DHT22;10677;50.942;4.028;2023-08-07T11:38:10;20.00;99.90
21037;DHT22;10677;50.942;4.028;2023-08-07T11:40:36;20.00;99.90
21037;DHT22;10677;50.942;4.028;2023-08-07T11:43:02;20.00;99.90
21037;DHT22;10677;50.942;4.028;2023-08-07T11:45:28;19.90;99.90
21037;DHT22;10677;50.942;4.028;2023-08-07T11:47:55;19.90;99.90
21037;DHT22;10677;50.942;4.028;2023-08-07T11:50:22;20.00;99.90
21037;DHT22;10677;50.942;4.028;2023-08-07T11:52:48;20.10;99.90
21037;DHT22;10677;50.942;4.028;2023-08-07T11:55:15;20.10;99.90
21037;DHT22;10677;50.942;4.028;2023-08-07T11:57:40;20.40;99.90
21037;DHT22;10677;50.942;4.028;2023-08-07T12:00:09;20.40;99.90
21037;DHT22;10677;50.942;4.028;2023-08-07T12:02:47;20.50;99.90
21037;DHT22;10677;50.942;4.028;2023-08-07T12:05:13;20.50;99.90
21037;DHT22;10677;50.942;4.028;2023-08-07T12:07:39;20.10;99.90
21037;DHT22;10677;50.942;4.028;2023-08-07T12:10:10;20.10;99.90
21037;DHT22;10677;50.942;4.028;2023-08-07T12:12:36;20.10;99.90
21037;DHT22;10677;50.942;4.028;2023-08-07T12:15:06;20.30;99.90
21037;DHT22;10677;50.942;4.028;2023-08-07T12:17:32;20.50;99.90
21037;DHT22;10677;50.942;4.028;2023-08-07T12:19:58;20.20;99.90
21037;DHT22;10677;50.942;4.028;2023-08-07T12:22:27;20.40;99.90
21037;DHT22;10677;50.942;4.028;2023-08-07T12:24:55;20.90;99.90
21037;DHT22;10677;50.942;4.028;2023-08-07T12:27:21;21.50;99.90
21037;DHT22;10677;50.942;4.028;2023-08-07T12:29:46;21.50;99.90
21037;DHT22;10677;50.942;4.028;2023-08-07T12:32:12;21.40;99.90
21037;DHT22;10677;50.942;4.028;2023-08-07T12:34:38;21.20;99.90
21037;DHT22;10677;50.942;4.028;2023-08-07T12:37:04;20.60;99.90
21037;DHT22;10677;50.942;4.028;2023-08-07T12:39:30;20.30;99.90
21037;DHT22;10677;50.942;4.028;2023-08-07T12:41:55;20.30;99.90
21037;DHT22;10677;50.942;4.028;2023-08-07T12:44:21;20.50;99.90
21037;DHT22;10677;50.942;4.028;2023-08-07T12:46:47;20.70;99.90
21037;DHT22;10677;50.942;4.028;2023-08-07T12:49:15;21.00;99.90
21037;DHT22;10677;50.942;4.028;2023-08-07T12:51:41;21.00;99.90
21037;DHT22;10677;50.942;4.028;2023-08-07T12:54:06;20.90;99.90
21037;DHT22;10677;50.942;4.028;2023-08-07T12:56:32;20.90;99.90
21037;DHT22;10677;50.942;4.028;2023-08-07T12:58:58;20.70;99.90
21037;DHT22;10677;50.942;4.028;2023-08-07T13:01:24;20.70;99.90
21037;DHT22;10677;50.942;4.028;2023-08-07T13:03:51;20.60;99.90
21037;DHT22;10677;50.942;4.028;2023-08-07T13:06:17;20.90;99.90
21037;DHT22;10677;50.942;4.028;2023-08-07T13:08:43;21.40;99.90
21037;DHT22;10677;50.942;4.028;2023-08-07T13:11:11;21.60;99.90
21037;DHT22;10677;50.942;4.028;2023-08-07T13:13:37;21.60;99.90
21037;DHT22;10677;50.942;4.028;2023-08-07T13:16:04;21.70;99.90
21037;DHT22;10677;50.942;4.028;2023-08-07T13:18:29;21.70;99.90
21037;DHT22;10677;50.942;4.028;2023-08-07T13:20:55;22.00;99.90
21037;DHT22;10677;50.942;4.028;2023-08-07T13:23:22;21.70;99.90
21037;DHT22;10677;50.942;4.028;2023-08-07T13:25:48;21.80;99.90
21037;DHT22;10677;50.942;4.028;2023-08-07T13:28:13;22.20;99.90
21037;DHT22;10677;50.942;4.028;2023-08-07T13:30:39;22.40;99.90
21037;DHT22;10677;50.942;4.028;2023-08-07T13:33:06;21.90;99.90
21037;DHT22;10677;50.942;4.028;2023-08-07T13:35:32;21.70;99.90
21037;DHT22;10677;50.942;4.028;2023-08-07T13:37:58;21.40;99.90
21037;DHT22;10677;50.942;4.028;2023-08-07T13:40:23;21.00;99.90
21037;DHT22;10677;50.942;4.028;2023-08-07T13:42:49;21.20;99.90
21037;DHT22;10677;50.942;4.028;2023-08-07T13:45:15;21.80;99.90
21037;DHT22;10677;50.942;4.028;2023-08-07T13:47:40;23.30;99.90
21037;DHT22;10677;50.942;4.028;2023-08-07T13:50:07;24.20;99.90
21037;DHT22;10677;50.942;4.028;2023-08-07T13:52:34;25.70;99.90
21037;DHT22;10677;50.942;4.028;2023-08-07T13:54:59;25.70;99.90
21037;DHT22;10677;50.942;4.028;2023-08-07T13:57:25;25.40;99.90
21037;DHT22;10677;50.942;4.028;2023-08-07T13:59:51;25.00;99.90
21037;DHT22;10677;50.942;4.028;2023-08-07T14:02:16;24.40;99.90
21037;DHT22;10677;50.942;4.028;2023-08-07T14:04:42;24.00;99.90
21037;DHT22;10677;50.942;4.028;2023-08-07T14:07:11;24.50;99.90
21037;DHT22;10677;50.942;4.028;2023-08-07T14:09:37;25.00;99.90
21037;DHT22;10677;50.942;4.028;2023-08-07T14:12:03;25.20;99.90
21037;DHT22;10677;50.942;4.028;2023-08-07T14:14:29;23.30;99.90
21037;DHT22;10677;50.942;4.028;2023-08-07T14:16:54;22.90;99.90
21037;DHT22;10677;50.942;4.028;2023-08-07T14:19:24;22.00;99.90
21037;DHT22;10677;50.942;4.028;2023-08-07T14:21:50;21.90;99.90
21037;DHT22;10677;50.942;4.028;2023-08-07T14:24:16;21.50;99.90
21037;DHT22;10677;50.942;4.028;2023-08-07T14:26:44;21.60;99.90
21037;DHT22;10677;50.942;4.028;2023-08-07T14:29:10;21.20;99.90
21037;DHT22;10677;50.942;4.028;2023-08-07T14:31:35;22.40;99.90
21037;DHT22;10677;50.942;4.028;2023-08-07T14:34:01;24.10;99.90
21037;DHT22;10677;50.942;4.028;2023-08-07T14:36:27;24.40;99.90
21037;DHT22;10677;50.942;4.028;2023-08-07T14:38:53;23.70;99.90
21037;DHT22;10677;50.942;4.028;2023-08-07T14:41:19;22.90;99.90
21037;DHT22;10677;50.942;4.028;2023-08-07T14:43:44;22.30;99.90
21037;DHT22;10677;50.942;4.028;2023-08-07T14:46:11;22.10;99.90
21037;DHT22;10677;50.942;4.028;2023-08-07T14:48:36;22.20;99.90
21037;DHT22;10677;50.942;4.028;2023-08-07T14:51:02;22.30;99.90
21037;DHT22;10677;50.942;4.028;2023-08-07T14:53:28;23.10;99.90
21037;DHT22;10677;50.942;4.028;2023-08-07T14:55:54;23.70;99.90
21037;DHT22;10677;50.942;4.028;2023-08-07T14:58:20;23.50;99.90
21037;DHT22;10677;50.942;4.028;2023-08-07T15:00:45;23.00;99.90
21037;DHT22;10677;50.942;4.028;2023-08-07T15:03:11;23.40;99.90
21037;DHT22;10677;50.942;4.028;2023-08-07T15:05:37;23.70;99.90
21037;DHT22;10677;50.942;4.028;2023-08-07T15:08:03;23.40;99.90
21037;DHT22;10677;50.942;4.028;2023-08-07T15:10:29;23.20;99.90
21037;DHT22;10677;50.942;4.028;2023-08-07T15:12:55;23.40;99.90
21037;DHT22;10677;50.942;4.028;2023-08-07T15:15:21;23.30;99.90
21037;DHT22;10677;50.942;4.028;2023-08-07T15:17:47;25.20;99.90
21037;DHT22;10677;50.942;4.028;2023-08-07T15:20:13;25.80;99.90
21037;DHT22;10677;50.942;4.028;2023-08-07T15:22:38;25.00;99.90
21037;DHT22;10677;50.942;4.028;2023-08-07T15:25:04;24.30;99.90
21037;DHT22;10677;50.942;4.028;2023-08-07T15:27:30;23.70;99.90
21037;DHT22;10677;50.942;4.028;2023-08-07T15:29:56;23.20;99.90
21037;DHT22;10677;50.942;4.028;2023-08-07T15:32:22;23.90;99.90
21037;DHT22;10677;50.942;4.028;2023-08-07T15:34:47;23.50;99.90
21037;DHT22;10677;50.942;4.028;2023-08-07T15:37:13;23.00;99.90